createdAt,value
2023-04-19T04:00:40.804Z,8.89
2023-04-19T04:01:42.061Z,8.87
2023-04-19T04:02:44.265Z,8.87
2023-04-19T04:03:43.615Z,8.84
2023-04-19T04:04:41.998Z,8.81
2023-04-19T04:05:41.827Z,8.80
2023-04-19T04:06:41.718Z,8.81
2023-04-19T04:07:41.748Z,8.77
2023-04-19T04:08:41.714Z,8.79
2023-04-19T04:09:41.688Z,8.77
2023-04-19T04:10:41.678Z,8.76
2023-04-19T04:11:41.666Z,8.74
2023-04-19T04:12:41.665Z,8.71
2023-04-19T04:13:41.663Z,8.68
2023-04-19T04:14:41.637Z,8.68
2023-04-19T04:15:41.632Z,8.63
2023-04-19T04:16:41.744Z,8.62
2023-04-19T04:17:41.704Z,8.58
2023-04-19T04:18:41.630Z,8.58
2023-04-19T04:19:41.621Z,8.56
2023-04-19T04:20:41.587Z,8.55
2023-04-19T04:21:41.559Z,8.50
2023-04-19T04:22:41.543Z,8.52
2023-04-19T04:23:41.562Z,8.45
2023-04-19T04:24:41.550Z,8.47
2023-04-19T04:25:41.523Z,8.47
2023-04-19T04:26:41.510Z,8.44
2023-04-19T04:27:41.612Z,8.43
2023-04-19T04:28:41.509Z,8.40
2023-04-19T04:29:41.516Z,8.40
2023-04-19T04:30:41.475Z,8.41
2023-04-19T04:31:41.541Z,8.38
2023-04-19T04:32:41.468Z,8.36
2023-04-19T04:33:41.485Z,8.36
2023-04-19T04:34:41.473Z,8.33
2023-04-19T04:35:41.440Z,8.33
2023-04-19T04:36:41.418Z,8.30
2023-04-19T04:37:41.470Z,8.29
2023-04-19T04:38:41.443Z,8.28
2023-04-19T04:39:41.402Z,8.28
2023-04-19T04:40:41.376Z,8.28
2023-04-19T04:41:41.376Z,8.26
2023-04-19T04:42:41.378Z,8.28
2023-04-19T04:43:41.375Z,8.23
2023-04-19T04:44:41.347Z,8.25
2023-04-19T04:45:41.367Z,8.23
2023-04-19T04:46:41.349Z,8.22
2023-04-19T04:47:41.336Z,8.22
2023-04-19T04:48:41.361Z,8.16
2023-04-19T04:49:41.295Z,8.19
2023-04-19T04:50:41.297Z,8.18
2023-04-19T04:51:41.293Z,8.20
2023-04-19T04:52:41.269Z,8.19
2023-04-19T04:53:41.279Z,8.19
2023-04-19T04:54:41.228Z,8.19
2023-04-19T04:55:41.225Z,8.20
2023-04-19T04:56:41.227Z,8.19
2023-04-19T04:57:41.251Z,8.16
2023-04-19T04:58:41.208Z,8.19
2023-04-19T04:59:41.200Z,8.19
2023-04-19T05:00:41.164Z,8.18
2023-04-19T05:01:41.195Z,8.18
2023-04-19T05:02:41.370Z,8.16
2023-04-19T05:03:41.237Z,8.16
2023-04-19T05:04:41.295Z,8.15
2023-04-19T05:05:42.278Z,8.12
2023-04-19T05:06:41.125Z,8.15
2023-04-19T05:07:41.127Z,8.16
2023-04-19T05:08:41.166Z,8.12
2023-04-19T05:09:41.103Z,8.15
2023-04-19T05:10:41.088Z,8.11
2023-04-19T05:11:41.069Z,8.12
2023-04-19T05:12:41.091Z,8.11
2023-04-19T05:13:41.031Z,8.10
2023-04-19T05:14:41.016Z,8.08
2023-04-19T05:15:41.023Z,8.11
2023-04-19T05:16:41.026Z,8.12
2023-04-19T05:17:41.059Z,8.08
2023-04-19T05:18:40.976Z,8.10
2023-04-19T05:19:40.972Z,8.12
2023-04-19T05:20:40.999Z,8.15
2023-04-19T05:21:40.957Z,8.12
2023-04-19T05:22:40.966Z,8.12
2023-04-19T05:23:40.950Z,8.15
2023-04-19T05:24:42.432Z,8.15
2023-04-19T05:25:40.964Z,8.15
2023-04-19T05:26:40.911Z,8.16
2023-04-19T05:27:40.923Z,8.12
2023-04-19T05:28:40.869Z,8.12
2023-04-19T05:29:40.865Z,8.15
2023-04-19T05:30:40.874Z,8.15
2023-04-19T05:31:40.951Z,8.16
2023-04-19T05:32:40.921Z,8.18
2023-04-19T05:33:40.820Z,8.16
2023-04-19T05:34:40.806Z,8.12
2023-04-19T05:35:40.803Z,8.08
2023-04-19T05:36:40.796Z,8.08
2023-04-19T05:37:40.812Z,8.08
2023-04-19T05:38:40.785Z,8.02
2023-04-19T05:39:43.525Z,8.01
2023-04-19T05:40:40.751Z,8.01
2023-04-19T05:41:40.747Z,8.00
2023-04-19T05:42:40.844Z,7.98
2023-04-19T05:43:40.719Z,8.00
2023-04-19T05:44:40.710Z,7.98
2023-04-19T05:45:40.699Z,8.01
2023-04-19T05:46:40.682Z,8.07
2023-04-19T05:47:40.773Z,8.11
2023-04-19T05:48:40.708Z,8.16
2023-04-19T05:49:42.010Z,8.22
2023-04-19T05:50:40.654Z,8.25
2023-04-19T05:51:40.646Z,8.33
2023-04-19T05:52:40.642Z,8.37
2023-04-19T05:53:40.617Z,8.44
2023-04-19T05:54:40.620Z,8.50
2023-04-19T05:55:40.602Z,8.53
2023-04-19T05:56:40.586Z,8.53
2023-04-19T05:57:40.656Z,8.53
2023-04-19T05:58:40.576Z,8.61
2023-04-19T05:59:40.633Z,8.66
2023-04-19T06:00:40.527Z,8.73
2023-04-19T06:01:40.562Z,8.76
2023-04-19T06:02:40.644Z,8.74
2023-04-19T06:03:40.600Z,8.65
2023-04-19T06:04:40.854Z,8.66
2023-04-19T06:05:40.587Z,8.68
2023-04-19T06:06:40.473Z,8.68
2023-04-19T06:07:47.132Z,8.65
2023-04-19T06:08:40.451Z,8.65
2023-04-19T06:09:40.442Z,8.65
2023-04-19T06:10:53.174Z,8.65
2023-04-19T06:11:50.101Z,8.61
2023-04-19T06:12:40.838Z,8.55
2023-04-19T06:13:40.414Z,8.47
2023-04-19T06:14:40.389Z,8.41
2023-04-19T06:15:40.399Z,8.41
2023-04-19T06:16:40.430Z,8.41
2023-04-19T06:17:40.404Z,8.38
2023-04-19T06:18:40.352Z,8.34
2023-04-19T06:19:40.332Z,8.36
2023-04-19T06:20:40.330Z,8.33
2023-04-19T06:21:40.339Z,8.34
2023-04-19T06:22:40.327Z,8.37
2023-04-19T06:23:40.291Z,8.34
2023-04-19T06:24:40.283Z,8.38
2023-04-19T06:25:40.289Z,8.38
2023-04-19T06:26:40.291Z,8.37
2023-04-19T06:27:40.264Z,8.29
2023-04-19T06:28:40.257Z,8.30
2023-04-19T06:29:40.258Z,8.29
2023-04-19T06:30:40.215Z,8.34
2023-04-19T06:31:40.271Z,8.38
2023-04-19T06:32:40.272Z,8.37
2023-04-19T06:33:40.212Z,8.37
2023-04-19T06:34:40.179Z,8.34
2023-04-19T06:35:40.200Z,8.33
2023-04-19T06:36:40.164Z,8.37
2023-04-19T06:37:40.169Z,8.37
2023-04-19T06:38:40.154Z,8.38
2023-04-19T06:39:40.131Z,8.41
2023-04-19T06:40:40.111Z,8.44
2023-04-19T06:41:40.120Z,8.43
2023-04-19T06:42:40.113Z,8.41
2023-04-19T06:43:40.242Z,8.44
2023-04-19T06:44:40.091Z,8.47
2023-04-19T06:45:40.121Z,8.58
2023-04-19T06:46:40.076Z,8.59
2023-04-19T06:47:40.192Z,8.66
2023-04-19T06:48:40.037Z,8.71
2023-04-19T06:49:40.038Z,8.70
2023-04-19T06:50:40.024Z,8.76
2023-04-19T06:51:40.006Z,8.74
2023-04-19T06:52:39.994Z,8.80
2023-04-19T06:53:39.977Z,8.81
2023-04-19T06:54:39.970Z,8.80
2023-04-19T06:55:39.968Z,8.80
2023-04-19T06:56:39.938Z,8.76
2023-04-19T06:57:39.966Z,8.81
2023-04-19T06:58:39.912Z,8.83
2023-04-19T06:59:39.922Z,8.86
2023-04-19T07:00:39.902Z,8.86
2023-04-19T07:01:39.978Z,8.81
2023-04-19T07:02:40.129Z,8.76
2023-04-19T07:03:39.959Z,8.70
2023-04-19T07:04:39.988Z,8.71
2023-04-19T07:05:39.845Z,8.68
2023-04-19T07:06:39.853Z,8.61
2023-04-19T07:07:39.849Z,8.59
2023-04-19T07:08:49.216Z,8.66
2023-04-19T07:09:39.812Z,8.68
2023-04-19T07:10:39.787Z,8.68
2023-04-19T07:11:39.789Z,8.68
2023-04-19T07:12:39.785Z,8.71
2023-04-19T07:13:39.766Z,8.84
2023-04-19T07:14:39.753Z,8.92
2023-04-19T07:15:39.878Z,8.92
2023-04-19T07:16:39.746Z,8.84
2023-04-19T07:17:39.788Z,8.84
2023-04-19T07:18:39.708Z,8.89
2023-04-19T07:19:39.729Z,8.89
2023-04-19T07:20:39.683Z,8.86
2023-04-19T07:21:39.704Z,8.84
2023-04-19T07:22:39.706Z,8.79
2023-04-19T07:23:39.669Z,8.83
2023-04-19T07:24:39.648Z,8.84
2023-04-19T07:25:39.741Z,8.92
2023-04-19T07:26:39.627Z,8.94
2023-04-19T07:27:39.654Z,8.96
2023-04-19T07:28:39.610Z,8.87
2023-04-19T07:29:39.615Z,8.96
2023-04-19T07:30:39.573Z,9.01
2023-04-19T07:31:39.611Z,9.02
2023-04-19T07:32:39.670Z,9.13
2023-04-19T07:33:39.551Z,9.20
2023-04-19T07:34:39.546Z,9.28
2023-04-19T07:35:39.561Z,9.38
2023-04-19T07:36:39.506Z,9.46
2023-04-19T07:37:39.551Z,9.48
2023-04-19T07:38:39.540Z,9.39
2023-04-19T07:39:39.500Z,9.43
2023-04-19T07:40:39.465Z,9.43
2023-04-19T07:41:39.498Z,9.35
2023-04-19T07:42:39.472Z,9.46
2023-04-19T07:43:41.053Z,9.57
2023-04-19T07:44:39.472Z,9.64
2023-04-19T07:45:39.431Z,9.68
2023-04-19T07:46:39.450Z,9.65
2023-04-19T07:47:39.460Z,9.71
2023-04-19T07:48:39.391Z,9.75
2023-04-19T07:49:39.411Z,9.76
2023-04-19T07:50:39.372Z,9.64
2023-04-19T07:51:39.364Z,9.65
2023-04-19T07:52:39.395Z,9.75
2023-04-19T07:53:39.342Z,9.91
2023-04-19T07:54:39.407Z,10.01
2023-04-19T07:55:39.315Z,9.87
2023-04-19T07:56:39.328Z,10.04
2023-04-19T07:57:39.328Z,10.22
2023-04-19T07:58:39.281Z,10.52
2023-04-19T07:59:39.277Z,10.82
2023-04-19T08:00:39.262Z,11.25
2023-04-19T08:01:39.325Z,11.21
2023-04-19T08:02:39.493Z,11.42
2023-04-19T08:03:39.412Z,11.85
2023-04-19T08:04:39.937Z,12.20
2023-04-19T08:05:46.195Z,12.60
2023-04-19T08:06:39.232Z,12.86
2023-04-19T08:07:39.262Z,12.54
2023-04-19T08:08:39.207Z,12.65
2023-04-19T08:09:39.210Z,13.12
2023-04-19T08:10:39.203Z,13.48
2023-04-19T08:11:39.181Z,13.54
2023-04-19T08:12:47.294Z,14.04
2023-04-19T08:13:40.413Z,14.45
2023-04-19T08:16:18.147Z,14.77
2023-04-19T08:17:42.196Z,14.42
2023-04-19T08:18:39.114Z,14.37
2023-04-19T08:19:39.106Z,14.22
2023-04-19T08:20:39.095Z,14.10
2023-04-19T08:21:41.619Z,13.60
2023-04-19T08:22:39.099Z,13.95
2023-04-19T08:23:47.910Z,13.96
2023-04-19T08:24:39.057Z,13.88
2023-04-19T08:25:39.044Z,13.51
2023-04-19T08:26:39.051Z,13.77
2023-04-19T08:27:39.033Z,14.00
2023-04-19T08:28:39.048Z,14.36
2023-04-19T08:29:39.024Z,14.07
2023-04-19T08:30:39.022Z,13.88
2023-04-19T08:31:39.003Z,13.99
2023-04-19T08:32:39.048Z,14.02
2023-04-19T08:33:38.993Z,14.46
2023-04-19T08:34:38.950Z,14.64
2023-04-19T08:35:38.936Z,14.40
2023-04-19T08:36:45.733Z,14.58
2023-04-19T08:37:38.995Z,14.55
2023-04-19T08:38:38.922Z,15.25
2023-04-19T08:39:39.013Z,14.84
2023-04-19T08:40:38.895Z,14.96
2023-04-19T08:41:38.882Z,14.94
2023-04-19T08:42:38.890Z,15.31
2023-04-19T08:43:40.454Z,15.11
2023-04-19T08:44:48.994Z,15.25
2023-04-19T08:45:38.905Z,14.78
2023-04-19T08:46:38.882Z,14.37
2023-04-19T08:47:51.853Z,14.51
2023-04-19T08:48:38.831Z,14.40
2023-04-19T08:49:41.369Z,14.33
2023-04-19T08:50:48.746Z,14.22
2023-04-19T08:51:38.769Z,14.29
2023-04-19T08:52:51.527Z,14.54
2023-04-19T08:53:38.748Z,14.57
2023-04-19T08:54:38.758Z,14.98
2023-04-19T08:55:40.901Z,14.46
2023-04-19T08:56:38.745Z,14.27
2023-04-19T08:57:38.787Z,14.54
2023-04-19T08:58:54.962Z,15.01
2023-04-19T08:59:38.706Z,15.59
2023-04-19T09:00:38.710Z,15.13
2023-04-19T09:01:38.700Z,15.46
2023-04-19T09:02:38.876Z,14.80
2023-04-19T09:03:47.746Z,15.35
2023-04-19T09:04:39.069Z,15.59
2023-04-19T09:05:38.931Z,15.23
2023-04-19T09:06:38.991Z,15.02
2023-04-19T09:07:38.684Z,15.29
2023-04-19T09:08:38.591Z,15.57
2023-04-19T09:09:48.758Z,15.57
2023-04-19T09:10:38.589Z,15.76
2023-04-19T09:11:38.544Z,16.09
2023-04-19T09:12:38.591Z,15.44
2023-04-19T09:13:38.577Z,15.28
2023-04-19T09:14:41.397Z,15.74
2023-04-19T09:15:38.687Z,15.76
2023-04-19T09:16:38.586Z,15.87
2023-04-19T09:17:38.893Z,16.17
2023-04-19T09:18:45.575Z,16.39
2023-04-19T09:19:38.523Z,15.56
2023-04-19T09:20:38.634Z,15.53
2023-04-19T09:21:38.571Z,14.99
2023-04-19T09:22:38.616Z,15.06
2023-04-19T09:23:38.414Z,15.14
2023-04-19T09:25:04.507Z,15.11
2023-04-19T09:26:05.839Z,15.31
2023-04-19T09:26:38.407Z,15.67
2023-04-19T09:27:38.403Z,15.27
2023-04-19T09:28:38.364Z,14.77
2023-04-19T09:29:38.399Z,14.39
2023-04-19T09:30:46.971Z,14.62
2023-04-19T09:32:38.376Z,15.57
2023-04-19T09:33:38.342Z,15.64
2023-04-19T09:34:38.292Z,15.32
2023-04-19T09:35:38.282Z,14.89
2023-04-19T09:36:38.278Z,15.34
2023-04-19T09:37:57.211Z,15.97
2023-04-19T09:38:38.263Z,16.20
2023-04-19T09:39:38.238Z,16.14
2023-04-19T09:40:38.254Z,15.89
2023-04-19T09:41:39.066Z,15.76
2023-04-19T09:43:58.749Z,16.07
2023-04-19T09:45:38.169Z,16.33
2023-04-19T09:46:38.252Z,15.93
2023-04-19T09:47:38.184Z,15.68
2023-04-19T09:48:38.150Z,15.60
2023-04-19T09:49:48.426Z,16.66
2023-04-19T09:50:46.260Z,16.94
2023-04-19T09:51:38.118Z,17.28
2023-04-19T09:52:38.122Z,16.68
2023-04-19T09:53:38.093Z,17.01
2023-04-19T09:54:38.102Z,17.30
2023-04-19T09:55:52.406Z,16.57
2023-04-19T09:56:38.074Z,16.78
2023-04-19T09:57:38.062Z,17.52
2023-04-19T09:58:49.528Z,17.89
2023-04-19T09:59:38.037Z,17.87
2023-04-19T10:00:45.656Z,18.07
2023-04-19T10:01:38.084Z,17.78
2023-04-19T10:02:38.052Z,17.41
2023-04-19T10:03:38.133Z,17.18
2023-04-19T10:04:59.660Z,17.54
2023-04-19T10:05:38.032Z,17.99
2023-04-19T10:06:58.178Z,18.03
2023-04-19T10:07:38.015Z,18.12
2023-04-19T10:08:37.951Z,17.49
2023-04-19T10:09:49.506Z,17.93
2023-04-19T10:10:41.799Z,18.41
2023-04-19T10:11:37.927Z,18.27
2023-04-19T10:13:06.888Z,18.69
2023-04-19T10:13:37.891Z,19.41
2023-04-19T10:14:37.887Z,19.23
2023-04-19T10:16:37.900Z,19.73
2023-04-19T10:17:37.904Z,20.08
2023-04-19T10:18:37.841Z,20.29
2023-04-19T10:19:37.819Z,20.61
2023-04-19T10:20:37.867Z,19.14
2023-04-19T10:21:37.806Z,18.29
2023-04-19T10:22:37.900Z,18.63
2023-04-19T10:23:37.802Z,18.91
2023-04-19T10:24:37.790Z,18.47
2023-04-19T10:25:37.772Z,18.45
2023-04-19T10:26:37.796Z,17.31
2023-04-19T10:27:37.772Z,17.01
2023-04-19T10:28:38.320Z,17.79
2023-04-19T10:29:37.715Z,18.12
2023-04-19T10:30:38.633Z,18.35
2023-04-19T10:31:37.874Z,18.20
2023-04-19T10:32:37.884Z,18.50
2023-04-19T10:33:37.734Z,17.84
2023-04-19T10:34:37.735Z,18.50
2023-04-19T10:35:37.691Z,18.25
2023-04-19T10:36:37.665Z,17.97
2023-04-19T10:37:37.725Z,18.17
2023-04-19T10:38:37.651Z,18.81
2023-04-19T10:39:37.633Z,19.41
2023-04-19T10:40:37.670Z,19.99
2023-04-19T10:41:37.630Z,19.73
2023-04-19T10:42:37.620Z,19.74
2023-04-19T10:43:37.569Z,20.14
2023-04-19T10:44:37.592Z,20.16
2023-04-19T10:45:37.580Z,20.01
2023-04-19T10:46:37.674Z,19.91
2023-04-19T10:47:37.577Z,20.33
2023-04-19T10:48:37.529Z,20.84
2023-04-19T10:49:37.503Z,19.92
2023-04-19T10:50:37.511Z,19.37
2023-04-19T10:51:37.499Z,19.37
2023-04-19T10:52:37.505Z,19.11
2023-04-19T10:53:37.467Z,19.43
2023-04-19T10:54:37.494Z,19.69
2023-04-19T10:55:37.449Z,20.21
2023-04-19T10:56:37.452Z,20.47
2023-04-19T10:57:37.428Z,19.88
2023-04-19T10:58:37.415Z,19.59
2023-04-19T10:59:37.410Z,19.18
2023-04-19T11:00:37.403Z,19.65
2023-04-19T11:01:37.502Z,19.50
2023-04-19T11:02:37.556Z,19.41
2023-04-19T11:03:37.434Z,18.92
2023-04-19T11:04:37.462Z,19.41
2023-04-19T11:05:37.343Z,19.50
2023-04-19T11:06:37.363Z,19.92
2023-04-19T11:07:37.320Z,20.18
2023-04-19T11:08:37.305Z,20.33
2023-04-19T11:09:37.291Z,20.11
2023-04-19T11:10:37.301Z,20.03
2023-04-19T11:11:37.304Z,19.81
2023-04-19T11:12:37.277Z,19.23
2023-04-19T11:13:37.261Z,19.22
2023-04-19T11:14:37.264Z,19.39
2023-04-19T11:15:37.259Z,20.11
2023-04-19T11:16:45.452Z,20.52
2023-04-19T11:17:37.281Z,20.06
2023-04-19T11:18:37.262Z,19.16
2023-04-19T11:19:37.246Z,19.40
2023-04-19T11:20:37.253Z,19.50
2023-04-19T11:21:37.173Z,19.18
2023-04-19T11:22:37.174Z,18.72
2023-04-19T11:23:37.140Z,18.42
2023-04-19T11:24:37.145Z,18.95
2023-04-19T11:25:37.134Z,19.55
2023-04-19T11:26:37.116Z,20.02
2023-04-19T11:27:37.125Z,19.40
2023-04-19T11:28:37.096Z,19.51
2023-04-19T11:29:37.120Z,19.91
2023-04-19T11:30:37.075Z,20.35
2023-04-19T11:31:37.101Z,20.88
2023-04-19T11:32:37.115Z,20.17
2023-04-19T11:33:37.050Z,20.47
2023-04-19T11:34:37.029Z,20.17
2023-04-19T11:35:37.015Z,19.98
2023-04-19T11:36:37.133Z,20.42
2023-04-19T11:37:37.008Z,20.02
2023-04-19T11:38:36.991Z,20.59
2023-04-19T11:39:36.975Z,20.32
2023-04-19T11:40:36.972Z,19.63
2023-04-19T11:41:36.971Z,19.58
2023-04-19T11:42:37.011Z,20.18
2023-04-19T11:43:36.930Z,20.66
2023-04-19T11:44:36.939Z,19.78
2023-04-19T11:45:39.587Z,19.92
2023-04-19T11:46:37.025Z,20.16
2023-04-19T11:47:36.988Z,20.84
2023-04-19T11:48:36.912Z,21.27
2023-04-19T11:49:36.869Z,21.35
2023-04-19T11:50:36.896Z,20.92
2023-04-19T11:51:36.872Z,21.13
2023-04-19T11:52:36.864Z,21.42
2023-04-19T11:53:36.874Z,21.92
2023-04-19T11:54:36.833Z,22.00
2023-04-19T11:55:36.848Z,20.95
2023-04-19T11:56:36.804Z,20.80
2023-04-19T11:57:36.807Z,20.76
2023-04-19T11:58:36.804Z,20.59
2023-04-19T11:59:36.827Z,20.39
2023-04-19T12:00:36.787Z,20.29
2023-04-19T12:01:36.746Z,20.48
2023-04-19T12:02:36.930Z,20.51
2023-04-19T12:03:37.114Z,20.54
2023-04-19T12:04:36.909Z,20.61
2023-04-19T12:05:36.871Z,20.36
2023-04-19T12:06:36.704Z,20.48
2023-04-19T12:07:36.699Z,21.34
2023-04-19T12:08:36.706Z,21.64
2023-04-19T12:09:36.667Z,21.27
2023-04-19T12:10:36.674Z,20.18
2023-04-19T12:11:36.642Z,20.41
2023-04-19T12:12:36.652Z,20.01
2023-04-19T12:13:36.622Z,19.78
2023-04-19T12:14:36.616Z,19.78
2023-04-19T12:15:36.606Z,19.95
2023-04-19T12:16:36.610Z,20.16
2023-04-19T12:17:40.102Z,20.41
2023-04-19T12:18:36.573Z,20.23
2023-04-19T12:19:36.559Z,20.16
2023-04-19T12:20:36.554Z,19.40
2023-04-19T12:21:36.533Z,20.24
2023-04-19T12:22:36.532Z,20.50
2023-04-19T12:23:36.525Z,20.76
2023-04-19T12:24:36.502Z,20.74
2023-04-19T12:25:36.498Z,20.92
2023-04-19T12:26:36.500Z,20.85
2023-04-19T12:27:36.482Z,20.95
2023-04-19T12:28:36.454Z,20.73
2023-04-19T12:29:36.446Z,20.84
2023-04-19T12:30:36.648Z,20.61
2023-04-19T12:31:36.465Z,20.59
2023-04-19T12:32:36.446Z,20.11
2023-04-19T12:33:36.408Z,20.08
2023-04-19T12:34:36.393Z,20.29
2023-04-19T12:35:36.377Z,19.98
2023-04-19T12:36:36.464Z,20.73
2023-04-19T12:37:36.480Z,21.29
2023-04-19T12:38:36.356Z,21.58
2023-04-19T12:39:36.356Z,21.03
2023-04-19T12:40:36.377Z,20.79
2023-04-19T12:41:36.345Z,20.58
2023-04-19T12:42:36.304Z,20.24
2023-04-19T12:43:36.332Z,19.62
2023-04-19T12:44:36.300Z,19.33
2023-04-19T12:45:36.370Z,19.04
2023-04-19T12:46:36.418Z,18.73
2023-04-19T12:47:36.285Z,19.18
2023-04-19T12:48:36.249Z,19.36
2023-04-19T12:49:36.269Z,19.32
2023-04-19T12:50:36.217Z,19.21
2023-04-19T12:51:36.301Z,18.57
2023-04-19T12:52:36.219Z,18.98
2023-04-19T12:53:36.203Z,19.07
2023-04-19T12:54:36.187Z,18.99
2023-04-19T12:55:36.176Z,18.78
2023-04-19T12:56:36.180Z,18.32
2023-04-19T12:57:36.203Z,17.95
2023-04-19T12:58:36.146Z,18.14
2023-04-19T12:59:36.122Z,18.54
2023-04-19T13:00:36.136Z,18.99
2023-04-19T13:01:36.156Z,19.81
2023-04-19T13:02:36.200Z,20.13
2023-04-19T13:03:36.279Z,19.51
2023-04-19T13:04:36.241Z,19.63
2023-04-19T13:05:36.053Z,19.76
2023-04-19T13:06:36.046Z,20.02
2023-04-19T13:07:36.077Z,20.70
2023-04-19T13:08:44.712Z,20.92
2023-04-19T13:09:36.057Z,20.69
2023-04-19T13:10:36.001Z,19.94
2023-04-19T13:11:35.999Z,19.61
2023-04-19T13:12:35.988Z,19.81
2023-04-19T13:13:35.977Z,19.87
2023-04-19T13:14:35.977Z,20.10
2023-04-19T13:15:36.162Z,20.62
2023-04-19T13:16:36.092Z,21.01
2023-04-19T13:17:36.152Z,20.92
2023-04-19T13:18:35.939Z,20.64
2023-04-19T13:19:35.935Z,20.51
2023-04-19T13:20:35.946Z,20.39
2023-04-19T13:21:35.947Z,20.33
2023-04-19T13:22:35.904Z,20.85
2023-04-19T13:23:35.880Z,21.13
2023-04-19T13:24:35.853Z,21.24
2023-04-19T13:25:35.869Z,21.01
2023-04-19T13:26:35.901Z,21.10
2023-04-19T13:27:35.862Z,20.58
2023-04-19T13:28:36.021Z,20.26
2023-04-19T13:29:35.833Z,19.08
2023-04-19T13:30:35.792Z,17.89
2023-04-19T13:31:35.828Z,17.82
2023-04-19T13:32:35.816Z,18.47
2023-04-19T13:33:35.781Z,19.28
2023-04-19T13:34:35.761Z,19.81
2023-04-19T13:35:35.763Z,20.24
2023-04-19T13:36:35.749Z,19.76
2023-04-19T13:37:35.732Z,18.95
2023-04-19T13:38:35.699Z,18.21
2023-04-19T13:39:35.696Z,18.15
2023-04-19T13:40:35.809Z,18.41
2023-04-19T13:41:35.725Z,18.51
2023-04-19T13:42:35.648Z,18.75
2023-04-19T13:43:35.648Z,18.81
2023-04-19T13:44:35.642Z,18.78
2023-04-19T13:45:35.627Z,18.69
2023-04-19T13:46:35.730Z,18.60
2023-04-19T13:47:35.698Z,18.42
2023-04-19T13:48:35.614Z,18.50
2023-04-19T13:49:35.574Z,18.76
2023-04-19T13:50:35.596Z,19.08
2023-04-19T13:51:48.987Z,18.90
2023-04-19T13:52:35.553Z,18.70
2023-04-19T13:53:35.539Z,19.14
2023-04-19T13:54:35.562Z,19.47
2023-04-19T13:55:35.534Z,19.07
2023-04-19T13:56:35.512Z,18.65
2023-04-19T13:57:35.516Z,18.37
2023-04-19T13:58:35.481Z,18.20
2023-04-19T13:59:35.475Z,18.25
2023-04-19T14:00:35.490Z,18.65
2023-04-19T14:01:35.477Z,18.91
2023-04-19T14:02:35.572Z,18.85
2023-04-19T14:03:35.585Z,18.65
2023-04-19T14:04:35.482Z,17.79
2023-04-19T14:05:35.421Z,17.33
2023-04-19T14:06:35.394Z,17.18
2023-04-19T14:07:35.403Z,17.40
2023-04-19T14:08:35.381Z,17.62
2023-04-19T14:09:35.371Z,17.96
2023-04-19T14:10:35.352Z,18.11
2023-04-19T14:11:35.337Z,18.12
2023-04-19T14:12:35.367Z,18.51
2023-04-19T14:13:35.330Z,18.23
2023-04-19T14:14:35.314Z,17.84
2023-04-19T14:15:35.303Z,17.74
2023-04-19T14:16:35.378Z,17.46
2023-04-19T14:17:35.363Z,17.68
2023-04-19T14:18:35.271Z,18.10
2023-04-19T14:19:35.268Z,18.47
2023-04-19T14:20:35.256Z,18.72
2023-04-19T14:21:35.272Z,18.65
2023-04-19T14:22:35.355Z,18.58
2023-04-19T14:23:35.209Z,18.33
2023-04-19T14:24:35.205Z,18.21
2023-04-19T14:25:35.183Z,17.52
2023-04-19T14:26:35.210Z,16.97
2023-04-19T14:27:35.174Z,16.43
2023-04-19T14:28:35.149Z,16.08
2023-04-19T14:29:35.144Z,16.43
2023-04-19T14:30:35.152Z,16.64
2023-04-19T14:31:35.183Z,16.66
2023-04-19T14:32:35.210Z,16.85
2023-04-19T14:33:35.123Z,17.04
2023-04-19T14:34:35.105Z,16.78
2023-04-19T14:35:35.089Z,16.56
2023-04-19T14:36:35.093Z,16.70
2023-04-19T14:37:35.067Z,16.94
2023-04-19T14:38:35.040Z,17.19
2023-04-19T14:39:35.065Z,17.49
2023-04-19T14:40:35.024Z,17.48
2023-04-19T14:41:35.066Z,17.33
2023-04-19T14:42:35.007Z,17.23
2023-04-19T14:43:35.009Z,17.37
2023-04-19T14:44:34.978Z,17.62
2023-04-19T14:45:35.010Z,17.59
2023-04-19T14:46:34.985Z,17.26
2023-04-19T14:47:34.982Z,16.94
2023-04-19T14:48:34.944Z,16.61
2023-04-19T14:49:34.930Z,16.21
2023-04-19T14:50:34.927Z,15.87
2023-04-19T14:51:34.942Z,15.69
2023-04-19T14:52:34.905Z,15.68
2023-04-19T14:53:34.883Z,16.11
2023-04-19T14:54:34.881Z,16.04
2023-04-19T14:55:34.880Z,15.93
2023-04-19T14:56:34.863Z,16.05
2023-04-19T14:57:34.847Z,16.35
2023-04-19T14:58:34.835Z,16.48
2023-04-19T14:59:34.820Z,16.79
2023-04-19T15:00:34.822Z,16.79
2023-04-19T15:01:34.882Z,16.79
2023-04-19T15:02:34.907Z,16.93
2023-04-19T15:03:34.969Z,16.85
2023-04-19T15:04:35.818Z,17.21
2023-04-19T15:05:34.827Z,17.46
2023-04-19T15:06:34.795Z,17.30
2023-04-19T15:07:34.742Z,16.53
2023-04-19T15:08:34.735Z,16.12
2023-04-19T15:09:34.726Z,15.76
2023-04-19T15:10:35.903Z,15.50
2023-04-19T15:11:34.719Z,15.27
2023-04-19T15:12:34.682Z,15.13
2023-04-19T15:13:34.685Z,15.06
2023-04-19T15:14:34.665Z,14.96
2023-04-19T15:15:34.687Z,14.95
2023-04-19T15:16:34.869Z,14.89
2023-04-19T15:17:34.667Z,14.99
2023-04-19T15:18:34.631Z,15.36
2023-04-19T15:19:34.622Z,15.71
2023-04-19T15:20:34.608Z,16.09
2023-04-19T15:21:34.668Z,16.31
2023-04-19T15:22:34.604Z,16.31
2023-04-19T15:23:34.600Z,16.25
2023-04-19T15:24:34.567Z,16.35
2023-04-19T15:25:34.547Z,16.48
2023-04-19T15:26:34.545Z,16.79
2023-04-19T15:27:34.562Z,16.83
2023-04-19T15:28:34.516Z,16.97
2023-04-19T15:29:34.522Z,16.96
2023-04-19T15:30:34.501Z,16.96
2023-04-19T15:31:34.514Z,17.37
2023-04-19T15:32:34.595Z,17.33
2023-04-19T15:33:34.483Z,16.52
2023-04-19T15:34:34.466Z,15.80
2023-04-19T15:35:34.454Z,15.54
2023-04-19T15:36:34.464Z,15.34
2023-04-19T15:37:34.435Z,15.13
2023-04-19T15:38:34.417Z,15.02
2023-04-19T15:39:34.416Z,15.56
2023-04-19T15:40:34.417Z,16.08
2023-04-19T15:41:34.410Z,16.49
2023-04-19T15:42:34.372Z,16.82
2023-04-19T15:43:34.391Z,16.88
2023-04-19T15:44:34.360Z,16.31
2023-04-19T15:45:34.349Z,15.74
2023-04-19T15:46:34.460Z,15.60
2023-04-19T15:47:34.369Z,15.41
2023-04-19T15:48:34.317Z,15.31
2023-04-19T15:49:34.318Z,15.25
2023-04-19T15:50:34.296Z,15.16
2023-04-19T15:51:34.309Z,15.03
2023-04-19T15:52:34.294Z,14.88
2023-04-19T15:53:34.286Z,14.72
2023-04-19T15:54:34.247Z,14.70
2023-04-19T15:55:34.252Z,14.77
2023-04-19T15:56:34.256Z,14.83
2023-04-19T15:57:34.226Z,14.88
2023-04-19T15:58:34.225Z,14.84
2023-04-19T15:59:34.206Z,14.78
2023-04-19T16:00:34.203Z,14.72
2023-04-19T16:01:34.196Z,15.03
2023-04-19T16:02:34.375Z,15.06
2023-04-19T16:03:34.296Z,15.13
2023-04-19T16:04:34.303Z,15.29
2023-04-19T16:05:34.156Z,15.64
2023-04-19T16:06:34.154Z,15.64
2023-04-19T16:07:34.146Z,15.38
2023-04-19T16:08:34.103Z,15.32
2023-04-19T16:09:34.147Z,14.95
2023-04-19T16:10:34.087Z,15.11
2023-04-19T16:11:34.089Z,15.43
2023-04-19T16:12:34.064Z,15.78
2023-04-19T16:13:34.058Z,15.92
2023-04-19T16:14:34.050Z,16.02
2023-04-19T16:15:34.043Z,16.07
2023-04-19T16:16:34.252Z,16.17
2023-04-19T16:17:34.014Z,16.23
2023-04-19T16:18:33.998Z,16.28
2023-04-19T16:19:33.992Z,16.04
2023-04-19T16:20:34.019Z,15.47
2023-04-19T16:21:34.025Z,15.14
2023-04-19T16:22:33.966Z,14.69
2023-04-19T16:23:33.944Z,14.42
2023-04-19T16:24:33.935Z,14.28
2023-04-19T16:25:33.934Z,14.27
2023-04-19T16:26:33.938Z,14.24
2023-04-19T16:27:33.908Z,14.15
2023-04-19T16:28:33.897Z,14.10
2023-04-19T16:29:33.883Z,13.97
2023-04-19T16:30:33.872Z,14.00
2023-04-19T16:31:33.901Z,14.03
2023-04-19T16:32:33.952Z,14.17
2023-04-19T16:33:33.843Z,14.46
2023-04-19T16:34:33.847Z,14.52
2023-04-19T16:35:33.812Z,14.64
2023-04-19T16:36:33.920Z,14.80
2023-04-19T16:37:33.811Z,14.86
2023-04-19T16:38:33.789Z,14.72
2023-04-19T16:39:33.772Z,14.51
2023-04-19T16:40:33.796Z,14.27
2023-04-19T16:41:33.770Z,14.18
2023-04-19T16:42:33.744Z,14.10
2023-04-19T16:43:33.730Z,13.97
2023-04-19T16:44:33.774Z,13.95
2023-04-19T16:45:33.903Z,13.92
2023-04-19T16:46:33.765Z,13.88
2023-04-19T16:47:33.750Z,13.85
2023-04-19T16:48:33.684Z,13.82
2023-04-19T16:49:33.669Z,13.77
2023-04-19T16:50:33.666Z,13.60
2023-04-19T16:51:33.723Z,13.54
2023-04-19T16:52:33.647Z,13.44
2023-04-19T16:53:33.653Z,13.30
2023-04-19T16:54:33.639Z,13.30
2023-04-19T16:55:33.606Z,13.29
2023-04-19T16:56:33.624Z,13.29
2023-04-19T16:57:33.587Z,13.25
2023-04-19T16:58:33.588Z,13.23
2023-04-19T16:59:33.562Z,13.30
2023-04-19T17:00:33.556Z,13.36
2023-04-19T17:01:33.745Z,13.41
2023-04-19T17:02:33.943Z,13.42
2023-04-19T17:03:33.609Z,13.32
2023-04-19T17:04:33.741Z,13.38
2023-04-19T17:05:33.495Z,13.39
2023-04-19T17:06:33.511Z,13.39